createdAt,value
2023-03-18T00:00:51.585Z,8.07
2023-03-18T00:03:18.331Z,6.63
2023-03-18T00:05:45.630Z,7.77
2023-03-18T00:08:12.337Z,6.23
2023-03-18T00:10:39.733Z,5.27
2023-03-18T00:13:06.575Z,5.80
2023-03-18T00:15:33.309Z,6.80
2023-03-18T00:18:00.025Z,5.30
2023-03-18T00:20:38.955Z,5.17
2023-03-18T00:23:08.433Z,7.23
2023-03-18T00:25:36.234Z,5.17
2023-03-18T00:28:05.080Z,5.00
2023-03-18T00:30:33.174Z,6.27
2023-03-18T00:33:00.790Z,4.30
2023-03-18T00:35:31.063Z,8.23
2023-03-18T00:38:04.227Z,4.53
2023-03-18T00:40:43.470Z,5.37
2023-03-18T00:43:12.985Z,6.10
2023-03-18T00:45:41.373Z,5.77
2023-03-18T00:48:09.182Z,4.00
2023-03-18T00:50:37.280Z,4.63
2023-03-18T00:53:03.983Z,10.43
2023-03-18T00:55:30.685Z,4.40
2023-03-18T00:57:57.975Z,5.07
2023-03-18T01:00:26.205Z,5.10
2023-03-18T01:02:53.264Z,6.03
2023-03-18T01:05:20.209Z,5.57
2023-03-18T01:07:49.770Z,7.07
2023-03-18T01:10:16.786Z,8.63
2023-03-18T01:12:46.591Z,5.17
2023-03-18T01:15:16.796Z,4.10
2023-03-18T01:17:44.166Z,5.07
2023-03-18T01:20:12.907Z,4.73
2023-03-18T01:22:42.865Z,4.83
2023-03-18T01:25:11.604Z,5.20
2023-03-18T01:27:38.923Z,4.40
2023-03-18T01:30:06.627Z,4.20
2023-03-18T01:32:34.326Z,4.70
2023-03-18T01:35:01.037Z,5.03
2023-03-18T01:37:31.605Z,4.13
2023-03-18T01:39:58.320Z,5.27
2023-03-18T01:42:25.018Z,4.13
2023-03-18T01:45:10.605Z,4.27
2023-03-18T01:47:37.218Z,7.03
2023-03-18T01:50:04.013Z,4.03
2023-03-18T01:52:32.266Z,5.40
2023-03-18T01:55:05.836Z,5.60
2023-03-18T01:57:34.850Z,5.13
2023-03-18T02:00:04.390Z,5.03
2023-03-18T02:02:32.569Z,4.60
2023-03-18T02:05:03.586Z,5.20
2023-03-18T02:07:34.106Z,4.37
2023-03-18T02:10:05.062Z,4.20
2023-03-18T02:12:35.470Z,4.77
2023-03-18T02:15:05.968Z,3.60
2023-03-18T02:17:38.745Z,4.70
2023-03-18T02:20:39.491Z,5.17
2023-03-18T02:23:40.452Z,4.40
2023-03-18T02:26:20.656Z,5.37
2023-03-18T02:28:50.368Z,4.30
2023-03-18T02:31:19.062Z,5.20
2023-03-18T02:33:47.242Z,17.10
2023-03-18T02:36:19.683Z,6.13
2023-03-18T02:38:49.982Z,4.60
2023-03-18T02:41:22.096Z,4.97
2023-03-18T02:43:51.003Z,5.27
2023-03-18T02:46:41.487Z,5.13
2023-03-18T02:49:08.736Z,6.23
2023-03-18T02:51:37.020Z,4.30
2023-03-18T02:54:12.897Z,6.87
2023-03-18T02:56:41.635Z,5.07
2023-03-18T02:59:09.525Z,4.33
2023-03-18T03:01:37.839Z,5.27
2023-03-18T03:04:05.162Z,7.60
2023-03-18T03:06:32.046Z,4.77
2023-03-18T03:09:00.535Z,7.03
2023-03-18T03:11:28.466Z,4.87
2023-03-18T03:13:58.069Z,4.47
2023-03-18T03:16:24.865Z,3.80
2023-03-18T03:18:51.817Z,6.37
2023-03-18T03:21:18.714Z,5.67
2023-03-18T03:23:47.700Z,4.10
2023-03-18T03:26:15.971Z,5.77
2023-03-18T03:28:43.045Z,4.10
2023-03-18T03:31:10.748Z,4.67
2023-03-18T03:33:43.466Z,5.67
2023-03-18T03:36:17.231Z,4.40
2023-03-18T03:38:47.359Z,6.57
2023-03-18T03:41:15.712Z,4.93
2023-03-18T03:43:42.426Z,4.30
2023-03-18T03:46:10.322Z,4.23
2023-03-18T03:48:38.256Z,4.37
2023-03-18T03:51:05.425Z,8.77
2023-03-18T03:53:33.913Z,4.60
2023-03-18T03:56:00.941Z,3.60
2023-03-18T03:58:28.324Z,3.63
2023-03-18T04:00:55.793Z,5.00
2023-03-18T04:03:22.519Z,4.30
2023-03-18T04:05:49.438Z,9.60
2023-03-18T04:08:16.121Z,3.40
2023-03-18T04:10:43.256Z,4.00
2023-03-18T04:13:10.236Z,3.80
2023-03-18T04:15:37.266Z,4.97
2023-03-18T04:18:06.879Z,5.17
2023-03-18T04:20:35.458Z,4.67
2023-03-18T04:23:03.892Z,3.87
2023-03-18T04:25:30.667Z,3.60
2023-03-18T04:27:58.135Z,6.43
2023-03-18T04:30:26.027Z,5.87
2023-03-18T04:32:53.432Z,5.37
2023-03-18T04:35:21.068Z,4.27
2023-03-18T04:37:48.632Z,4.13
2023-03-18T04:40:15.679Z,3.70
2023-03-18T04:42:42.643Z,7.90
2023-03-18T04:45:09.705Z,4.50
2023-03-18T04:47:38.084Z,8.40
2023-03-18T04:50:05.264Z,6.33
2023-03-18T04:52:32.021Z,5.07
2023-03-18T04:54:58.654Z,4.97
2023-03-18T04:57:25.928Z,4.37
2023-03-18T04:59:52.624Z,6.60
2023-03-18T05:02:19.778Z,4.10
2023-03-18T05:04:46.677Z,4.30
2023-03-18T05:07:15.348Z,6.33
2023-03-18T05:09:43.613Z,6.20
2023-03-18T05:12:13.447Z,3.77
2023-03-18T05:14:41.598Z,5.67
2023-03-18T05:17:15.276Z,5.70
2023-03-18T05:19:43.974Z,4.87
2023-03-18T05:22:11.564Z,5.43
2023-03-18T05:24:39.837Z,5.97
2023-03-18T05:27:07.317Z,4.27
2023-03-18T05:29:34.141Z,4.03
2023-03-18T05:32:00.868Z,4.23
2023-03-18T05:34:27.653Z,7.03
2023-03-18T05:36:54.360Z,4.07
2023-03-18T05:39:21.050Z,6.13
2023-03-18T05:41:47.736Z,4.37
2023-03-18T05:44:14.704Z,4.07
2023-03-18T05:46:41.833Z,4.90
2023-03-18T05:49:08.796Z,4.03
2023-03-18T05:51:35.568Z,4.90
2023-03-18T05:54:03.980Z,3.67
2023-03-18T05:56:31.209Z,3.97
2023-03-18T05:58:58.604Z,4.23
2023-03-18T06:01:26.122Z,7.03
2023-03-18T06:03:53.525Z,3.97
2023-03-18T06:06:20.177Z,7.17
2023-03-18T06:08:47.397Z,4.00
2023-03-18T06:11:14.273Z,4.53
2023-03-18T06:13:41.409Z,6.10
2023-03-18T06:16:09.000Z,7.13
2023-03-18T06:18:36.318Z,3.70
2023-03-18T06:21:03.382Z,6.33
2023-03-18T06:23:29.985Z,6.00
2023-03-18T06:25:56.879Z,4.43
2023-03-18T06:28:23.668Z,4.70
2023-03-18T06:30:50.353Z,4.93
2023-03-18T06:33:16.976Z,5.17
2023-03-18T06:35:44.063Z,3.83
2023-03-18T06:38:14.259Z,4.80
2023-03-18T06:40:40.930Z,4.87
2023-03-18T06:43:07.580Z,6.60
2023-03-18T06:45:34.367Z,7.50
2023-03-18T06:48:01.717Z,7.07
2023-03-18T06:50:28.406Z,6.97
2023-03-18T06:52:55.268Z,5.30
2023-03-18T06:55:21.894Z,5.00
2023-03-18T06:57:48.526Z,5.83
2023-03-18T07:00:15.889Z,4.53
2023-03-18T07:02:43.297Z,5.00
2023-03-18T07:05:10.424Z,4.83
2023-03-18T07:07:40.181Z,3.97
2023-03-18T07:10:10.421Z,7.20
2023-03-18T07:12:37.028Z,4.23
2023-03-18T07:15:04.250Z,4.90
2023-03-18T07:17:30.940Z,4.60
2023-03-18T07:19:58.049Z,4.40
2023-03-18T07:22:24.691Z,5.40
2023-03-18T07:24:52.328Z,7.70
2023-03-18T07:27:19.804Z,6.33
2023-03-18T07:29:47.209Z,5.73
2023-03-18T07:32:14.033Z,6.67
2023-03-18T07:34:41.248Z,5.17
2023-03-18T07:37:08.041Z,5.30
2023-03-18T07:39:34.806Z,7.00
2023-03-18T07:42:02.088Z,5.80
2023-03-18T07:44:29.314Z,7.33
2023-03-18T07:46:56.762Z,7.37
2023-03-18T07:49:23.806Z,6.40
2023-03-18T07:51:50.722Z,5.47
2023-03-18T07:54:18.106Z,4.50
2023-03-18T07:56:44.924Z,5.13
2023-03-18T07:59:12.339Z,6.67
2023-03-18T08:01:39.831Z,7.10
2023-03-18T08:04:06.819Z,10.47
2023-03-18T08:06:34.510Z,5.13
2023-03-18T08:09:02.077Z,7.87
2023-03-18T08:11:28.781Z,5.27
2023-03-18T08:13:55.421Z,5.37
2023-03-18T08:16:23.113Z,4.60
2023-03-18T08:18:49.776Z,4.47
2023-03-18T08:21:16.423Z,4.97
2023-03-18T08:23:43.039Z,6.73
2023-03-18T08:26:09.827Z,8.63
2023-03-18T08:28:36.852Z,5.73
2023-03-18T08:31:04.884Z,4.67
2023-03-18T08:33:32.181Z,6.00
2023-03-18T08:35:59.729Z,6.10
2023-03-18T08:38:26.447Z,5.33
2023-03-18T08:40:53.189Z,5.10
2023-03-18T08:43:22.145Z,6.63
2023-03-18T08:45:56.015Z,6.03
2023-03-18T08:48:24.007Z,6.20
2023-03-18T08:50:50.812Z,7.50
2023-03-18T08:53:17.852Z,6.20
2023-03-18T08:55:47.074Z,4.60
2023-03-18T08:58:14.044Z,5.00
2023-03-18T09:00:41.734Z,4.50
2023-03-18T09:03:09.048Z,6.47
2023-03-18T09:05:35.907Z,9.37
2023-03-18T09:08:03.736Z,8.60
2023-03-18T09:10:30.525Z,7.30
2023-03-18T09:12:57.828Z,7.93
2023-03-18T09:15:24.627Z,4.87
2023-03-18T09:18:07.914Z,7.53
2023-03-18T09:20:37.683Z,5.50
2023-03-18T09:23:04.799Z,5.67
2023-03-18T09:25:32.318Z,5.17
2023-03-18T09:28:00.306Z,5.53
2023-03-18T09:30:27.658Z,5.00
2023-03-18T09:32:54.750Z,4.13
2023-03-18T09:35:21.440Z,3.93
2023-03-18T09:37:48.448Z,7.50
2023-03-18T09:40:43.218Z,5.80
2023-03-18T09:43:40.310Z,6.93
2023-03-18T09:46:18.454Z,7.73
2023-03-18T09:49:11.104Z,4.00
2023-03-18T09:51:59.374Z,5.13
2023-03-18T09:54:47.189Z,7.10
2023-03-18T09:57:36.928Z,8.40
2023-03-18T10:00:17.508Z,3.63
2023-03-18T10:03:13.366Z,5.67
2023-03-18T10:05:54.083Z,6.23
2023-03-18T10:09:14.385Z,4.63
2023-03-18T10:11:44.423Z,4.67
2023-03-18T10:14:27.216Z,10.43
2023-03-18T10:17:31.181Z,5.63
2023-03-18T10:19:59.951Z,5.43
2023-03-18T10:23:00.416Z,4.07
2023-03-18T10:25:41.423Z,4.07
2023-03-18T10:28:23.315Z,7.67
2023-03-18T10:31:08.293Z,4.60
2023-03-18T10:33:53.851Z,4.63
2023-03-18T10:36:39.858Z,7.27
2023-03-18T10:39:15.377Z,5.30
2023-03-18T10:41:44.573Z,5.07
2023-03-18T10:44:21.272Z,5.20
2023-03-18T10:46:53.519Z,2.60
2023-03-18T10:49:27.562Z,5.07
2023-03-18T10:52:08.357Z,5.47
2023-03-18T10:54:50.401Z,6.37
2023-03-18T10:57:19.012Z,6.07
2023-03-18T10:59:48.060Z,2.00
2023-03-18T11:02:20.320Z,2.47
2023-03-18T11:04:55.263Z,3.57
2023-03-18T11:07:25.975Z,2.60
2023-03-18T11:09:53.269Z,5.60
2023-03-18T11:12:29.203Z,5.83
2023-03-18T11:14:56.331Z,4.27
2023-03-18T11:17:41.968Z,5.83
2023-03-18T11:20:24.400Z,2.97
2023-03-18T11:22:55.413Z,4.90
2023-03-18T11:25:27.183Z,4.90
2023-03-18T11:28:05.091Z,3.07
2023-03-18T11:30:49.005Z,3.40
2023-03-18T11:33:17.683Z,2.30
2023-03-18T11:35:46.320Z,5.07
2023-03-18T11:38:28.608Z,5.43
2023-03-18T11:41:06.585Z,2.97
2023-03-18T11:43:33.273Z,1.80
2023-03-18T11:46:07.724Z,2.93
2023-03-18T11:48:44.151Z,3.40
2023-03-18T11:51:42.809Z,2.73
2023-03-18T11:54:22.328Z,3.17
2023-03-18T11:57:11.829Z,4.60
2023-03-18T12:00:08.556Z,2.83
2023-03-18T12:02:42.672Z,5.20
2023-03-18T12:05:37.255Z,2.70
2023-03-18T12:08:10.475Z,6.00
2023-03-18T12:10:47.113Z,6.57
2023-03-18T12:13:52.568Z,2.83
2023-03-18T12:16:40.029Z,3.13
2023-03-18T12:19:34.114Z,2.90
2023-03-18T12:22:26.927Z,3.33
2023-03-18T12:25:07.513Z,4.50
2023-03-18T12:28:11.798Z,3.50
2023-03-18T12:30:56.064Z,5.00
2023-03-18T12:33:37.630Z,2.57
2023-03-18T12:36:34.123Z,3.47
2023-03-18T12:39:24.054Z,2.60
2023-03-18T12:42:13.493Z,4.40
2023-03-18T12:45:02.960Z,3.83
2023-03-18T12:47:40.168Z,4.90
2023-03-18T12:50:19.507Z,6.40
2023-03-18T12:53:17.537Z,2.37
2023-03-18T12:55:51.885Z,2.30
2023-03-18T12:58:23.159Z,4.43
2023-03-18T13:00:54.690Z,3.80
2023-03-18T13:03:34.353Z,3.57
2023-03-18T13:06:07.698Z,4.03
2023-03-18T13:08:40.633Z,3.00
2023-03-18T13:11:40.838Z,2.90
2023-03-18T13:14:32.727Z,2.47
2023-03-18T13:17:00.779Z,4.33
2023-03-18T13:19:27.881Z,3.37
2023-03-18T13:22:20.616Z,4.07
2023-03-18T13:25:13.090Z,3.00
2023-03-18T13:27:55.231Z,2.50
2023-03-18T13:30:28.699Z,2.37
2023-03-18T13:33:38.596Z,2.00
2023-03-18T13:36:34.918Z,2.40
2023-03-18T13:39:38.844Z,2.97
2023-03-18T13:42:22.472Z,2.13
2023-03-18T13:45:22.358Z,2.83
2023-03-18T13:48:02.729Z,2.80
2023-03-18T13:50:50.486Z,2.37
2023-03-18T13:53:41.384Z,2.03
2023-03-18T13:56:26.077Z,2.30
2023-03-18T13:58:54.003Z,5.03
2023-03-18T14:01:29.644Z,4.13
2023-03-18T14:04:01.164Z,2.73
2023-03-18T14:06:36.868Z,3.80
2023-03-18T14:09:35.265Z,5.37
2023-03-18T14:12:42.675Z,2.60
2023-03-18T14:15:09.429Z,3.17
2023-03-18T14:17:38.873Z,1.93
2023-03-18T14:20:19.128Z,4.03
2023-03-18T14:22:51.470Z,1.97
2023-03-18T14:25:18.081Z,4.83
2023-03-18T14:27:48.471Z,2.77
2023-03-18T14:30:31.678Z,2.10
2023-03-18T14:33:18.610Z,2.73
2023-03-18T14:36:10.330Z,3.57
2023-03-18T14:39:06.989Z,3.13
2023-03-18T14:41:39.685Z,2.73
2023-03-18T14:44:21.078Z,2.77
2023-03-18T14:46:55.910Z,3.83
2023-03-18T14:49:45.960Z,3.77
2023-03-18T14:52:33.257Z,5.73
2023-03-18T14:55:07.391Z,6.00
2023-03-18T14:57:34.105Z,3.57
2023-03-18T15:00:01.668Z,2.20
2023-03-18T15:02:34.241Z,5.27
2023-03-18T15:05:01.913Z,3.30
2023-03-18T15:07:41.357Z,3.03
2023-03-18T15:10:17.083Z,5.20
2023-03-18T15:12:43.954Z,4.77
2023-03-18T15:15:16.259Z,4.87
2023-03-18T15:17:49.118Z,4.47
2023-03-18T15:20:16.355Z,2.53
2023-03-18T15:22:43.480Z,5.90
2023-03-18T15:25:20.477Z,3.87
2023-03-18T15:27:48.277Z,3.03
2023-03-18T15:30:27.274Z,2.00
2023-03-18T15:33:19.723Z,1.70
2023-03-18T15:36:00.909Z,2.60
2023-03-18T15:38:30.203Z,2.83
2023-03-18T15:41:09.469Z,3.23
2023-03-18T15:43:40.400Z,1.67
2023-03-18T15:46:28.166Z,2.43
2023-03-18T15:48:56.586Z,3.73
2023-03-18T15:51:42.223Z,5.20
2023-03-18T15:54:29.822Z,2.10
2023-03-18T15:56:59.121Z,3.00
2023-03-18T15:59:31.201Z,3.37
2023-03-18T16:01:59.381Z,2.90
2023-03-18T16:04:30.542Z,1.77
2023-03-18T16:06:57.644Z,2.87
2023-03-18T16:09:26.280Z,4.67
2023-03-18T16:11:58.345Z,2.53
2023-03-18T16:14:37.469Z,3.63
2023-03-18T16:17:04.164Z,1.80
2023-03-18T16:19:30.961Z,3.07
2023-03-18T16:21:58.982Z,3.17
2023-03-18T16:24:29.324Z,2.33
2023-03-18T16:26:57.046Z,6.90
2023-03-18T16:29:36.877Z,1.97
2023-03-18T16:32:04.523Z,4.53
2023-03-18T16:34:34.096Z,2.67
2023-03-18T16:37:00.848Z,3.07
2023-03-18T16:39:34.143Z,6.43
2023-03-18T16:42:03.078Z,8.33
2023-03-18T16:44:37.999Z,3.50
2023-03-18T16:47:04.924Z,4.60
2023-03-18T16:49:34.230Z,6.33
2023-03-18T16:52:03.845Z,6.37
2023-03-18T16:54:32.945Z,7.87
2023-03-18T16:57:02.731Z,3.93
2023-03-18T16:59:33.595Z,4.27
2023-03-18T17:02:00.688Z,3.60
2023-03-18T17:04:34.822Z,3.03
2023-03-18T17:07:04.533Z,4.23
2023-03-18T17:09:31.993Z,3.80
2023-03-18T17:12:03.804Z,5.23
2023-03-18T17:14:43.381Z,4.00
2023-03-18T17:17:33.822Z,3.60
2023-03-18T17:20:00.458Z,8.33
2023-03-18T17:22:29.480Z,6.33
2023-03-18T17:24:56.322Z,6.33
2023-03-18T17:27:30.002Z,6.57
2023-03-18T17:29:56.672Z,6.30
2023-03-18T17:32:23.333Z,7.27
2023-03-18T17:34:51.656Z,7.63
2023-03-18T17:37:19.714Z,8.30
2023-03-18T17:39:46.777Z,12.67
2023-03-18T17:42:40.214Z,10.60
2023-03-18T17:45:28.416Z,10.23
2023-03-18T17:48:12.825Z,8.37
2023-03-18T17:50:40.093Z,10.53
2023-03-18T17:53:09.624Z,10.03
2023-03-18T17:55:36.654Z,12.53
2023-03-18T17:58:11.988Z,6.20
2023-03-18T18:00:38.824Z,8.50
2023-03-18T18:03:16.863Z,9.70
2023-03-18T18:05:43.515Z,9.00
2023-03-18T18:08:15.523Z,8.07
2023-03-18T18:10:42.125Z,10.97
2023-03-18T18:13:18.062Z,8.00
2023-03-18T18:15:46.646Z,8.70
2023-03-18T18:18:29.001Z,9.80
2023-03-18T18:21:01.051Z,9.47
2023-03-18T18:23:33.888Z,10.77
2023-03-18T18:26:07.398Z,9.93
2023-03-18T18:28:36.678Z,14.00
2023-03-18T18:31:05.898Z,12.43
2023-03-18T18:33:33.472Z,9.80
2023-03-18T18:36:01.081Z,10.13
2023-03-18T18:38:28.518Z,12.50
2023-03-18T18:40:56.307Z,7.77
2023-03-18T18:43:24.666Z,9.23
2023-03-18T18:45:52.788Z,7.97
2023-03-18T18:48:28.372Z,6.53
2023-03-18T18:50:55.161Z,7.07
2023-03-18T18:53:27.431Z,8.40
2023-03-18T18:55:57.351Z,5.57
2023-03-18T18:58:29.331Z,8.17
2023-03-18T19:00:56.498Z,7.43
2023-03-18T19:03:25.716Z,6.90
2023-03-18T19:05:54.701Z,7.23
2023-03-18T19:08:34.295Z,6.60
2023-03-18T19:11:04.917Z,8.10
2023-03-18T19:13:33.337Z,7.40
2023-03-18T19:16:07.170Z,8.37
2023-03-18T19:18:39.220Z,8.53
2023-03-18T19:21:06.898Z,8.07
2023-03-18T19:23:35.637Z,14.33
2023-03-18T19:26:04.146Z,9.80
2023-03-18T19:28:57.646Z,9.13
2023-03-18T19:31:27.159Z,9.27
2023-03-18T19:33:54.249Z,12.37
2023-03-18T19:36:41.862Z,8.23
2023-03-18T19:39:17.057Z,7.67
2023-03-18T19:41:44.932Z,7.83
2023-03-18T19:44:24.131Z,13.33
2023-03-18T19:46:53.759Z,11.10
2023-03-18T19:49:26.969Z,10.37
2023-03-18T19:51:54.502Z,9.10
2023-03-18T19:54:34.061Z,7.27
2023-03-18T19:57:19.374Z,7.97
2023-03-18T19:59:48.526Z,7.07
2023-03-18T20:02:27.147Z,10.10
2023-03-18T20:04:59.449Z,7.70
2023-03-18T20:07:32.513Z,8.57
2023-03-18T20:09:59.279Z,12.00
2023-03-18T20:12:32.601Z,9.00
2023-03-18T20:14:59.246Z,10.20
2023-03-18T20:17:35.802Z,10.63
2023-03-18T20:20:02.777Z,7.53
2023-03-18T20:22:33.574Z,8.23
2023-03-18T20:25:02.122Z,10.67
2023-03-18T20:27:30.048Z,8.30
2023-03-18T20:29:57.192Z,10.77
2023-03-18T20:32:23.914Z,10.83
2023-03-18T20:34:51.301Z,10.03
2023-03-18T20:37:37.079Z,11.23
2023-03-18T20:40:05.379Z,11.33
2023-03-18T20:42:32.490Z,11.37
2023-03-18T20:44:59.123Z,9.90
2023-03-18T20:47:25.766Z,11.13
2023-03-18T20:49:53.814Z,9.97
2023-03-18T20:52:29.681Z,10.73
2023-03-18T20:54:58.472Z,9.30
2023-03-18T20:57:26.094Z,8.67
2023-03-18T20:59:52.878Z,8.77
2023-03-18T21:02:31.711Z,11.67
2023-03-18T21:05:00.284Z,10.80
2023-03-18T21:07:27.639Z,10.60
2023-03-18T21:09:54.517Z,9.83
2023-03-18T21:12:22.174Z,13.07
2023-03-18T21:14:49.602Z,10.03
2023-03-18T21:17:27.545Z,10.83
2023-03-18T21:20:11.032Z,10.90
2023-03-18T21:22:46.952Z,10.87
2023-03-18T21:25:19.114Z,12.83
2023-03-18T21:27:46.129Z,14.33
2023-03-18T21:30:14.521Z,11.57
2023-03-18T21:32:44.840Z,11.33
2023-03-18T21:35:19.399Z,15.80
2023-03-18T21:37:46.307Z,14.73
2023-03-18T21:40:19.165Z,10.90
2023-03-18T21:42:46.497Z,10.60
2023-03-18T21:45:16.350Z,11.23
2023-03-18T21:47:43.174Z,10.53
2023-03-18T21:50:30.502Z,13.23
2023-03-18T21:52:59.139Z,12.10
2023-03-18T21:55:25.818Z,13.07
2023-03-18T21:57:52.567Z,10.47
2023-03-18T22:00:20.435Z,12.60
2023-03-18T22:02:48.114Z,14.60
2023-03-18T22:05:23.593Z,15.10
2023-03-18T22:07:51.599Z,12.17
2023-03-18T22:10:22.883Z,11.93
2023-03-18T22:12:50.116Z,13.07
2023-03-18T22:15:33.622Z,9.70
2023-03-18T22:18:00.865Z,13.73
2023-03-18T22:20:28.298Z,11.50
2023-03-18T22:22:55.071Z,14.33
2023-03-18T22:25:34.045Z,10.93
2023-03-18T22:28:00.990Z,13.83
2023-03-18T22:30:30.021Z,13.30
2023-03-18T22:32:58.201Z,13.07
2023-03-18T22:35:27.772Z,15.27
2023-03-18T22:37:54.671Z,13.80
2023-03-18T22:40:29.610Z,12.63
2023-03-18T22:42:58.905Z,13.20
2023-03-18T22:45:31.745Z,14.77
2023-03-18T22:48:04.150Z,11.53
2023-03-18T22:50:34.156Z,13.27
2023-03-18T22:53:03.917Z,14.53
2023-03-18T22:55:38.795Z,14.43
2023-03-18T22:58:05.845Z,11.93
2023-03-18T23:00:43.786Z,14.10
2023-03-18T23:03:19.809Z,14.00
2023-03-18T23:05:48.133Z,14.60
2023-03-18T23:08:15.114Z,13.33
2023-03-18T23:10:43.754Z,13.23
2023-03-18T23:13:37.987Z,14.80
2023-03-18T23:16:06.760Z,15.13
2023-03-18T23:18:34.965Z,13.47
2023-03-18T23:21:01.707Z,15.10
2023-03-18T23:23:30.264Z,17.90
2023-03-18T23:25:57.433Z,19.23
2023-03-18T23:28:24.131Z,12.50
2023-03-18T23:30:52.756Z,14.30
2023-03-18T23:33:20.021Z,16.57
2023-03-18T23:35:48.107Z,13.63
2023-03-18T23:38:15.421Z,15.77
2023-03-18T23:40:42.063Z,15.63
2023-03-18T23:43:09.118Z,16.07
2023-03-18T23:45:37.724Z,13.97
2023-03-18T23:48:05.464Z,14.03
2023-03-18T23:50:32.427Z,13.13
2023-03-18T23:52:59.976Z,17.73
2023-03-18T23:55:34.406Z,16.70
2023-03-18T23:58:01.866Z,17.43
